Kezdőlap
METAR-TAF:

METAR-TAF

Repülőterek :

Baudette, Minnesota, Amerikai Egyesült Államok

földrajzi szélesség: 48-43-36N, földrajzi hosszúság: 094-36-44W, magasság: 330 m

Jelenlegi meteorológiai megfigyelések

A jelentés 53 perccel ezelõtt készült, 05:53 UTC
Kelet-északkeleti szél 3 kt
Hőmérséklet 18°C
Páratartalom 77%
Légköri nyomás 1017 hPa
Látótávolság: 16.1 km
Derült ég

METAR: KBDE 220553Z AUTO 06003KT 10SM CLR 18/14 A3004 RMK AO2 SLP172 T01830139 10239 20178 402670111 58006

Idő: 01:46 (06:46 UTC)


TAF: hiányzik

Meteorológiai megfigyelések és előrejelzések több, mint 4000 repülőtéren (METAR és TAF jelentéseket).

A térképen piros és sárga pontok jelzik az elérhető meteorológiai állomásokat.

Mozgassa az egeret a pont fölött, hogy megjelenjen az állomás neve.

Azután kattintson az időjárási megfigyelések és előrejelzések megtekintéséhez.

A térkép megváltoztatása: kattintson a fekete keresztel jelölt zöld gombra ráközelítéshez, a vonallal jelölt zöld gombra távolításhoz, vagy a zöld nyilakra a szomszédos térképek eléréséhez.


METAR-TAF: